sensor_id;sensor_type;location;lat;lon;timestamp;temperature;humidity
43772;HTU21D;59066;54.782;32.024;2023-04-03T00:00:57;2.99;80.17
43772;HTU21D;59066;54.782;32.024;2023-04-03T00:03:24;3.04;80.04
43772;HTU21D;59066;54.782;32.024;2023-04-03T00:05:52;3.02;80.02
43772;HTU21D;59066;54.782;32.024;2023-04-03T00:08:19;3.02;79.98
43772;HTU21D;59066;54.782;32.024;2023-04-03T00:10:47;2.99;79.96
43772;HTU21D;59066;54.782;32.024;2023-04-03T00:13:15;2.97;80.13
43772;HTU21D;59066;54.782;32.024;2023-04-03T00:15:43;2.95;80.16
43772;HTU21D;59066;54.782;32.024;2023-04-03T00:18:10;2.90;80.01
43772;HTU21D;59066;54.782;32.024;2023-04-03T00:20:38;2.86;79.88
43772;HTU21D;59066;54.782;32.024;2023-04-03T00:23:06;2.83;80.38
43772;HTU21D;59066;54.782;32.024;2023-04-03T00:25:34;2.83;80.13
43772;HTU21D;59066;54.782;32.024;2023-04-03T00:28:02;2.82;80.38
43772;HTU21D;59066;54.782;32.024;2023-04-03T00:30:31;2.84;80.24
43772;HTU21D;59066;54.782;32.024;2023-04-03T00:32:58;2.86;80.31
43772;HTU21D;59066;54.782;32.024;2023-04-03T00:35:28;2.89;80.35
43772;HTU21D;59066;54.782;32.024;2023-04-03T00:37:56;2.83;80.40
43772;HTU21D;59066;54.782;32.024;2023-04-03T00:40:26;2.81;80.33
43772;HTU21D;59066;54.782;32.024;2023-04-03T00:42:59;2.80;80.27
43772;HTU21D;59066;54.782;32.024;2023-04-03T00:45:34;2.81;80.33
43772;HTU21D;59066;54.782;32.024;2023-04-03T00:48:04;2.74;80.32
43772;HTU21D;59066;54.782;32.024;2023-04-03T00:50:39;2.67;80.36
43772;HTU21D;59066;54.782;32.024;2023-04-03T00:53:11;2.64;80.52
43772;HTU21D;59066;54.782;32.024;2023-04-03T00:55:41;2.66;80.56
43772;HTU21D;59066;54.782;32.024;2023-04-03T00:58:10;2.61;80.55
43772;HTU21D;59066;54.782;32.024;2023-04-03T01:00:40;2.66;80.33
43772;HTU21D;59066;54.782;32.024;2023-04-03T01:03:09;2.60;80.42
43772;HTU21D;59066;54.782;32.024;2023-04-03T01:05:42;2.58;80.47
43772;HTU21D;59066;54.782;32.024;2023-04-03T01:08:10;2.60;80.59
43772;HTU21D;59066;54.782;32.024;2023-04-03T01:10:37;2.56;80.57
43772;HTU21D;59066;54.782;32.024;2023-04-03T01:13:29;2.60;80.69
43772;HTU21D;59066;54.782;32.024;2023-04-03T01:16:01;2.67;80.61
43772;HTU21D;59066;54.782;32.024;2023-04-03T01:18:29;2.68;80.56
43772;HTU21D;59066;54.782;32.024;2023-04-03T01:26:54;2.75;80.44
43772;HTU21D;59066;54.782;32.024;2023-04-03T01:29:22;2.70;80.40
43772;HTU21D;59066;54.782;32.024;2023-04-03T01:31:52;2.73;80.49
43772;HTU21D;59066;54.782;32.024;2023-04-03T01:34:20;2.72;80.43
43772;HTU21D;59066;54.782;32.024;2023-04-03T01:36:49;2.70;80.40
43772;HTU21D;59066;54.782;32.024;2023-04-03T01:39:19;2.66;80.36
43772;HTU21D;59066;54.782;32.024;2023-04-03T01:41:47;2.67;80.46
43772;HTU21D;59066;54.782;32.024;2023-04-03T01:44:25;2.57;80.48
43772;HTU21D;59066;54.782;32.024;2023-04-03T01:46:53;2.55;80.61
43772;HTU21D;59066;54.782;32.024;2023-04-03T01:49:22;2.54;80.77
43772;HTU21D;59066;54.782;32.024;2023-04-03T01:51:50;2.57;80.75
43772;HTU21D;59066;54.782;32.024;2023-04-03T01:54:17;2.61;80.79
43772;HTU21D;59066;54.782;32.024;2023-04-03T01:56:45;2.58;80.67
43772;HTU21D;59066;54.782;32.024;2023-04-03T01:59:13;2.61;80.78
43772;HTU21D;59066;54.782;32.024;2023-04-03T02:01:44;2.62;80.72
43772;HTU21D;59066;54.782;32.024;2023-04-03T02:04:12;2.61;80.76
43772;HTU21D;59066;54.782;32.024;2023-04-03T02:06:40;2.58;80.72
43772;HTU21D;59066;54.782;32.024;2023-04-03T02:09:08;2.59;80.85
43772;HTU21D;59066;54.782;32.024;2023-04-03T02:11:35;2.60;81.06
43772;HTU21D;59066;54.782;32.024;2023-04-03T02:14:03;2.61;80.86
43772;HTU21D;59066;54.782;32.024;2023-04-03T02:16:31;2.59;80.91
43772;HTU21D;59066;54.782;32.024;2023-04-03T02:18:59;2.62;81.05
43772;HTU21D;59066;54.782;32.024;2023-04-03T02:21:26;2.56;80.94
43772;HTU21D;59066;54.782;32.024;2023-04-03T02:23:55;2.54;80.89
43772;HTU21D;59066;54.782;32.024;2023-04-03T02:26:22;2.49;81.16
43772;HTU21D;59066;54.782;32.024;2023-04-03T02:28:50;2.46;80.98
43772;HTU21D;59066;54.782;32.024;2023-04-03T02:31:18;2.49;81.27
43772;HTU21D;59066;54.782;32.024;2023-04-03T02:33:46;2.47;81.27
43772;HTU21D;59066;54.782;32.024;2023-04-03T02:36:15;2.47;81.33
43772;HTU21D;59066;54.782;32.024;2023-04-03T02:38:47;2.49;81.48
43772;HTU21D;59066;54.782;32.024;2023-04-03T02:41:15;2.45;81.16
43772;HTU21D;59066;54.782;32.024;2023-04-03T02:43:43;2.43;81.30
43772;HTU21D;59066;54.782;32.024;2023-04-03T02:46:10;2.37;81.42
43772;HTU21D;59066;54.782;32.024;2023-04-03T02:48:38;2.35;81.35
43772;HTU21D;59066;54.782;32.024;2023-04-03T02:51:06;2.32;81.46
43772;HTU21D;59066;54.782;32.024;2023-04-03T02:53:33;2.30;81.52
43772;HTU21D;59066;54.782;32.024;2023-04-03T02:56:08;2.28;81.65
43772;HTU21D;59066;54.782;32.024;2023-04-03T02:58:35;2.31;81.78
43772;HTU21D;59066;54.782;32.024;2023-04-03T03:01:05;2.34;81.74
43772;HTU21D;59066;54.782;32.024;2023-04-03T03:03:32;2.39;81.74
43772;HTU21D;59066;54.782;32.024;2023-04-03T03:06:02;2.37;81.68
43772;HTU21D;59066;54.782;32.024;2023-04-03T03:08:30;2.31;81.40
43772;HTU21D;59066;54.782;32.024;2023-04-03T03:10:58;2.23;81.76
43772;HTU21D;59066;54.782;32.024;2023-04-03T03:13:25;2.27;81.75
43772;HTU21D;59066;54.782;32.024;2023-04-03T03:15:53;2.27;81.81
43772;HTU21D;59066;54.782;32.024;2023-04-03T03:18:21;2.31;81.88
43772;HTU21D;59066;54.782;32.024;2023-04-03T03:20:53;2.29;81.58
43772;HTU21D;59066;54.782;32.024;2023-04-03T03:23:22;2.25;81.78
43772;HTU21D;59066;54.782;32.024;2023-04-03T03:25:55;2.28;81.68
43772;HTU21D;59066;54.782;32.024;2023-04-03T03:28:24;2.24;81.72
43772;HTU21D;59066;54.782;32.024;2023-04-03T03:30:51;2.23;81.75
43772;HTU21D;59066;54.782;32.024;2023-04-03T03:33:20;2.26;81.86
43772;HTU21D;59066;54.782;32.024;2023-04-03T03:35:47;2.29;81.75
43772;HTU21D;59066;54.782;32.024;2023-04-03T03:38:15;2.30;81.76
43772;HTU21D;59066;54.782;32.024;2023-04-03T03:40:43;2.26;81.65
43772;HTU21D;59066;54.782;32.024;2023-04-03T03:43:10;2.23;81.48
43772;HTU21D;59066;54.782;32.024;2023-04-03T03:45:38;2.24;81.78
43772;HTU21D;59066;54.782;32.024;2023-04-03T03:48:05;2.25;81.69
43772;HTU21D;59066;54.782;32.024;2023-04-03T03:50:33;2.28;81.83
43772;HTU21D;59066;54.782;32.024;2023-04-03T03:53:01;2.24;81.62
43772;HTU21D;59066;54.782;32.024;2023-04-03T03:55:28;2.21;81.83
43772;HTU21D;59066;54.782;32.024;2023-04-03T03:57:57;2.23;81.88
43772;HTU21D;59066;54.782;32.024;2023-04-03T04:00:28;2.25;81.87
43772;HTU21D;59066;54.782;32.024;2023-04-03T04:02:56;2.27;81.84
43772;HTU21D;59066;54.782;32.024;2023-04-03T04:05:26;2.26;81.75
43772;HTU21D;59066;54.782;32.024;2023-04-03T04:07:53;2.28;81.74
43772;HTU21D;59066;54.782;32.024;2023-04-03T04:10:22;2.24;81.71
43772;HTU21D;59066;54.782;32.024;2023-04-03T04:12:50;2.25;81.73
43772;HTU21D;59066;54.782;32.024;2023-04-03T04:15:22;2.29;81.88
43772;HTU21D;59066;54.782;32.024;2023-04-03T04:17:50;2.35;81.80
43772;HTU21D;59066;54.782;32.024;2023-04-03T04:20:17;2.38;81.69
43772;HTU21D;59066;54.782;32.024;2023-04-03T04:22:46;2.39;81.61
43772;HTU21D;59066;54.782;32.024;2023-04-03T04:25:15;2.40;81.72
43772;HTU21D;59066;54.782;32.024;2023-04-03T04:27:43;2.39;81.27
43772;HTU21D;59066;54.782;32.024;2023-04-03T04:30:14;2.38;81.60
43772;HTU21D;59066;54.782;32.024;2023-04-03T04:32:43;2.39;81.58
43772;HTU21D;59066;54.782;32.024;2023-04-03T04:35:11;2.40;81.80
43772;HTU21D;59066;54.782;32.024;2023-04-03T04:37:42;2.53;81.68
43772;HTU21D;59066;54.782;32.024;2023-04-03T04:40:11;2.56;81.68
43772;HTU21D;59066;54.782;32.024;2023-04-03T04:42:39;2.56;81.27
43772;HTU21D;59066;54.782;32.024;2023-04-03T04:45:07;2.59;81.71
43772;HTU21D;59066;54.782;32.024;2023-04-03T04:47:37;2.62;81.30
43772;HTU21D;59066;54.782;32.024;2023-04-03T04:50:05;2.60;81.29
43772;HTU21D;59066;54.782;32.024;2023-04-03T04:52:33;2.51;81.08
43772;HTU21D;59066;54.782;32.024;2023-04-03T04:55:01;2.53;81.40
43772;HTU21D;59066;54.782;32.024;2023-04-03T04:57:28;2.60;81.33
43772;HTU21D;59066;54.782;32.024;2023-04-03T04:59:58;2.58;81.24
43772;HTU21D;59066;54.782;32.024;2023-04-03T05:02:26;2.64;81.23
43772;HTU21D;59066;54.782;32.024;2023-04-03T05:04:54;2.67;81.10
43772;HTU21D;59066;54.782;32.024;2023-04-03T05:07:26;2.67;81.24
43772;HTU21D;59066;54.782;32.024;2023-04-03T05:09:54;2.72;81.10
43772;HTU21D;59066;54.782;32.024;2023-04-03T05:12:23;2.74;80.75
43772;HTU21D;59066;54.782;32.024;2023-04-03T05:14:55;2.71;80.98
43772;HTU21D;59066;54.782;32.024;2023-04-03T05:17:24;2.74;80.65
43772;HTU21D;59066;54.782;32.024;2023-04-03T05:19:55;2.71;80.68
43772;HTU21D;59066;54.782;32.024;2023-04-03T05:22:24;2.74;80.71
43772;HTU21D;59066;54.782;32.024;2023-04-03T05:24:55;2.78;80.78
43772;HTU21D;59066;54.782;32.024;2023-04-03T05:27:23;2.82;80.59
43772;HTU21D;59066;54.782;32.024;2023-04-03T05:29:55;2.85;80.47
43772;HTU21D;59066;54.782;32.024;2023-04-03T05:32:23;2.82;80.53
43772;HTU21D;59066;54.782;32.024;2023-04-03T05:34:59;2.85;80.35
43772;HTU21D;59066;54.782;32.024;2023-04-03T05:37:27;2.87;80.40
43772;HTU21D;59066;54.782;32.024;2023-04-03T05:39:56;2.80;80.12
43772;HTU21D;59066;54.782;32.024;2023-04-03T05:42:23;2.85;80.26
43772;HTU21D;59066;54.782;32.024;2023-04-03T05:44:51;2.78;79.62
43772;HTU21D;59066;54.782;32.024;2023-04-03T05:47:19;2.71;79.98
43772;HTU21D;59066;54.782;32.024;2023-04-03T05:49:47;2.79;80.20
43772;HTU21D;59066;54.782;32.024;2023-04-03T05:52:26;2.80;80.04
43772;HTU21D;59066;54.782;32.024;2023-04-03T05:54:55;2.79;79.76
43772;HTU21D;59066;54.782;32.024;2023-04-03T05:57:25;2.74;79.72
43772;HTU21D;59066;54.782;32.024;2023-04-03T05:59:53;2.72;79.62
43772;HTU21D;59066;54.782;32.024;2023-04-03T06:02:23;2.80;79.56
43772;HTU21D;59066;54.782;32.024;2023-04-03T06:04:52;2.78;79.47
43772;HTU21D;59066;54.782;32.024;2023-04-03T06:07:21;2.76;79.60
43772;HTU21D;59066;54.782;32.024;2023-04-03T06:09:50;2.88;79.62
43772;HTU21D;59066;54.782;32.024;2023-04-03T06:12:21;2.91;79.62
43772;HTU21D;59066;54.782;32.024;2023-04-03T06:14:49;2.88;79.21
43772;HTU21D;59066;54.782;32.024;2023-04-03T06:17:17;2.91;79.28
43772;HTU21D;59066;54.782;32.024;2023-04-03T06:19:46;2.88;79.13
43772;HTU21D;59066;54.782;32.024;2023-04-03T06:22:15;2.93;79.55
43772;HTU21D;59066;54.782;32.024;2023-04-03T06:24:42;2.95;79.30
43772;HTU21D;59066;54.782;32.024;2023-04-03T06:27:11;3.00;79.26
43772;HTU21D;59066;54.782;32.024;2023-04-03T06:29:38;2.99;79.25
43772;HTU21D;59066;54.782;32.024;2023-04-03T06:32:06;2.97;78.88
43772;HTU21D;59066;54.782;32.024;2023-04-03T06:34:34;2.95;79.17
43772;HTU21D;59066;54.782;32.024;2023-04-03T06:37:02;2.99;78.80
43772;HTU21D;59066;54.782;32.024;2023-04-03T06:39:30;2.98;78.98
43772;HTU21D;59066;54.782;32.024;2023-04-03T06:41:57;2.98;79.02
43772;HTU21D;59066;54.782;32.024;2023-04-03T06:44:37;3.10;79.12
43772;HTU21D;59066;54.782;32.024;2023-04-03T06:47:05;3.14;79.17
43772;HTU21D;59066;54.782;32.024;2023-04-03T06:49:32;3.21;78.81
43772;HTU21D;59066;54.782;32.024;2023-04-03T06:52:00;3.28;78.99
43772;HTU21D;59066;54.782;32.024;2023-04-03T06:54:28;3.39;78.81
43772;HTU21D;59066;54.782;32.024;2023-04-03T06:56:56;3.44;78.69
43772;HTU21D;59066;54.782;32.024;2023-04-03T06:59:23;3.48;78.45
43772;HTU21D;59066;54.782;32.024;2023-04-03T07:01:51;3.48;78.29
43772;HTU21D;59066;54.782;32.024;2023-04-03T07:04:19;3.41;78.04
43772;HTU21D;59066;54.782;32.024;2023-04-03T07:06:50;3.43;78.17
43772;HTU21D;59066;54.782;32.024;2023-04-03T07:09:18;3.42;77.97
43772;HTU21D;59066;54.782;32.024;2023-04-03T07:11:45;3.40;78.18
43772;HTU21D;59066;54.782;32.024;2023-04-03T07:14:13;3.48;78.36
43772;HTU21D;59066;54.782;32.024;2023-04-03T07:16:40;3.57;78.11
43772;HTU21D;59066;54.782;32.024;2023-04-03T07:19:08;3.54;78.06
43772;HTU21D;59066;54.782;32.024;2023-04-03T07:21:37;3.49;77.78
43772;HTU21D;59066;54.782;32.024;2023-04-03T07:24:04;3.48;77.79
43772;HTU21D;59066;54.782;32.024;2023-04-03T07:26:33;3.54;77.76
43772;HTU21D;59066;54.782;32.024;2023-04-03T07:29:01;3.49;77.77
43772;HTU21D;59066;54.782;32.024;2023-04-03T07:31:29;3.59;78.01
43772;HTU21D;59066;54.782;32.024;2023-04-03T07:33:56;3.70;77.82
43772;HTU21D;59066;54.782;32.024;2023-04-03T07:36:24;3.77;77.70
43772;HTU21D;59066;54.782;32.024;2023-04-03T07:38:51;3.84;77.69
43772;HTU21D;59066;54.782;32.024;2023-04-03T07:41:19;3.87;77.56
43772;HTU21D;59066;54.782;32.024;2023-04-03T07:43:49;3.89;77.36
43772;HTU21D;59066;54.782;32.024;2023-04-03T07:46:17;3.89;77.32
43772;HTU21D;59066;54.782;32.024;2023-04-03T07:48:44;3.92;77.33
43772;HTU21D;59066;54.782;32.024;2023-04-03T07:51:12;3.93;76.89
43772;HTU21D;59066;54.782;32.024;2023-04-03T07:53:40;3.91;76.92
43772;HTU21D;59066;54.782;32.024;2023-04-03T07:56:08;3.91;76.97
43772;HTU21D;59066;54.782;32.024;2023-04-03T07:58:36;3.95;77.08
43772;HTU21D;59066;54.782;32.024;2023-04-03T08:01:04;3.98;77.14
43772;HTU21D;59066;54.782;32.024;2023-04-03T08:03:32;3.98;76.88
43772;HTU21D;59066;54.782;32.024;2023-04-03T08:06:07;4.08;76.98
43772;HTU21D;59066;54.782;32.024;2023-04-03T08:08:41;4.20;76.72
43772;HTU21D;59066;54.782;32.024;2023-04-03T08:11:10;4.19;76.57
43772;HTU21D;59066;54.782;32.024;2023-04-03T08:13:37;4.17;76.37
43772;HTU21D;59066;54.782;32.024;2023-04-03T08:16:10;4.30;76.53
43772;HTU21D;59066;54.782;32.024;2023-04-03T08:18:38;4.39;76.29
43772;HTU21D;59066;54.782;32.024;2023-04-03T08:21:11;4.39;76.21
43772;HTU21D;59066;54.782;32.024;2023-04-03T08:23:40;4.42;75.94
43772;HTU21D;59066;54.782;32.024;2023-04-03T08:26:10;4.45;76.05
43772;HTU21D;59066;54.782;32.024;2023-04-03T08:28:39;4.54;75.90
43772;HTU21D;59066;54.782;32.024;2023-04-03T08:31:14;4.62;75.89
43772;HTU21D;59066;54.782;32.024;2023-04-03T08:33:42;4.72;75.55
43772;HTU21D;59066;54.782;32.024;2023-04-03T08:36:36;4.66;75.33
43772;HTU21D;59066;54.782;32.024;2023-04-03T08:39:04;4.63;75.25
43772;HTU21D;59066;54.782;32.024;2023-04-03T08:41:42;4.53;74.89
43772;HTU21D;59066;54.782;32.024;2023-04-03T08:52:39;4.53;75.31
43772;HTU21D;59066;54.782;32.024;2023-04-03T08:55:31;4.59;75.17
43772;HTU21D;59066;54.782;32.024;2023-04-03T09:01:26;4.56;74.30
43772;HTU21D;59066;54.782;32.024;2023-04-03T09:03:55;4.31;74.47
43772;HTU21D;59066;54.782;32.024;2023-04-03T09:06:29;4.23;74.75
43772;HTU21D;59066;54.782;32.024;2023-04-03T09:09:31;4.24;75.10
43772;HTU21D;59066;54.782;32.024;2023-04-03T09:12:06;4.33;75.10
43772;HTU21D;59066;54.782;32.024;2023-04-03T09:14:54;4.28;74.95
43772;HTU21D;59066;54.782;32.024;2023-04-03T09:22:51;4.21;74.61
43772;HTU21D;59066;54.782;32.024;2023-04-03T09:25:31;4.24;74.70
43772;HTU21D;59066;54.782;32.024;2023-04-03T09:28:00;4.21;74.57
43772;HTU21D;59066;54.782;32.024;2023-04-03T09:30:29;4.22;74.55
43772;HTU21D;59066;54.782;32.024;2023-04-03T09:32:57;4.23;74.68
43772;HTU21D;59066;54.782;32.024;2023-04-03T09:35:33;4.19;74.22
43772;HTU21D;59066;54.782;32.024;2023-04-03T09:40:43;4.01;74.80
43772;HTU21D;59066;54.782;32.024;2023-04-03T09:43:32;3.99;74.83
43772;HTU21D;59066;54.782;32.024;2023-04-03T09:48:52;4.02;74.71
43772;HTU21D;59066;54.782;32.024;2023-04-03T09:51:33;3.94;74.46
43772;HTU21D;59066;54.782;32.024;2023-04-03T09:54:25;3.93;74.73
43772;HTU21D;59066;54.782;32.024;2023-04-03T09:56:53;3.99;74.64
43772;HTU21D;59066;54.782;32.024;2023-04-03T09:59:22;4.00;74.62
43772;HTU21D;59066;54.782;32.024;2023-04-03T10:02:20;4.08;74.51
43772;HTU21D;59066;54.782;32.024;2023-04-03T10:04:48;4.04;74.32
43772;HTU21D;59066;54.782;32.024;2023-04-03T10:07:35;4.01;74.31
43772;HTU21D;59066;54.782;32.024;2023-04-03T10:12:45;4.07;74.57
43772;HTU21D;59066;54.782;32.024;2023-04-03T10:15:14;4.08;74.37
43772;HTU21D;59066;54.782;32.024;2023-04-03T10:20:35;3.95;74.32
43772;HTU21D;59066;54.782;32.024;2023-04-03T10:28:55;3.89;74.80
43772;HTU21D;59066;54.782;32.024;2023-04-03T10:31:36;3.83;74.64
43772;HTU21D;59066;54.782;32.024;2023-04-03T10:36:54;3.69;74.44
43772;HTU21D;59066;54.782;32.024;2023-04-03T10:39:43;3.62;75.12
43772;HTU21D;59066;54.782;32.024;2023-04-03T10:42:39;3.65;75.10
43772;HTU21D;59066;54.782;32.024;2023-04-03T10:45:21;3.74;75.24
43772;HTU21D;59066;54.782;32.024;2023-04-03T10:50:46;3.85;75.16
43772;HTU21D;59066;54.782;32.024;2023-04-03T10:56:30;3.87;74.98
43772;HTU21D;59066;54.782;32.024;2023-04-03T11:01:55;3.97;75.02
43772;HTU21D;59066;54.782;32.024;2023-04-03T11:04:27;4.06;75.15
43772;HTU21D;59066;54.782;32.024;2023-04-03T11:07:02;3.95;74.89
43772;HTU21D;59066;54.782;32.024;2023-04-03T11:09:34;3.99;75.16
43772;HTU21D;59066;54.782;32.024;2023-04-03T11:14:38;3.97;75.01
43772;HTU21D;59066;54.782;32.024;2023-04-03T11:19:54;3.94;75.05
43772;HTU21D;59066;54.782;32.024;2023-04-03T11:22:36;3.97;75.41
43772;HTU21D;59066;54.782;32.024;2023-04-03T11:27:48;4.16;75.52
43772;HTU21D;59066;54.782;32.024;2023-04-03T11:30:21;4.17;75.31
43772;HTU21D;59066;54.782;32.024;2023-04-03T11:33:03;4.12;74.79
43772;HTU21D;59066;54.782;32.024;2023-04-03T11:35:33;4.10;75.57
43772;HTU21D;59066;54.782;32.024;2023-04-03T11:38:03;4.18;75.53
43772;HTU21D;59066;54.782;32.024;2023-04-03T11:40:35;4.21;75.66
43772;HTU21D;59066;54.782;32.024;2023-04-03T11:45:55;4.28;75.09
43772;HTU21D;59066;54.782;32.024;2023-04-03T11:51:01;4.29;75.31
43772;HTU21D;59066;54.782;32.024;2023-04-03T11:53:31;4.35;75.21
43772;HTU21D;59066;54.782;32.024;2023-04-03T11:56:04;4.34;75.08
43772;HTU21D;59066;54.782;32.024;2023-04-03T11:58:35;4.36;75.04
43772;HTU21D;59066;54.782;32.024;2023-04-03T12:01:09;4.36;75.20
43772;HTU21D;59066;54.782;32.024;2023-04-03T12:08:59;4.41;75.00
43772;HTU21D;59066;54.782;32.024;2023-04-03T12:11:32;4.48;75.15
43772;HTU21D;59066;54.782;32.024;2023-04-03T12:24:29;4.60;74.59
43772;HTU21D;59066;54.782;32.024;2023-04-03T12:40:24;4.47;74.57
43772;HTU21D;59066;54.782;32.024;2023-04-03T12:43:24;4.43;74.15
43772;HTU21D;59066;54.782;32.024;2023-04-03T12:51:37;4.07;74.59
43772;HTU21D;59066;54.782;32.024;2023-04-03T12:54:18;4.10;74.75
43772;HTU21D;59066;54.782;32.024;2023-04-03T12:56:46;4.04;74.57
43772;HTU21D;59066;54.782;32.024;2023-04-03T12:59:21;4.02;74.57
43772;HTU21D;59066;54.782;32.024;2023-04-03T13:01:56;3.94;74.62
43772;HTU21D;59066;54.782;32.024;2023-04-03T13:04:26;3.85;74.86
43772;HTU21D;59066;54.782;32.024;2023-04-03T13:06:54;3.79;74.57
43772;HTU21D;59066;54.782;32.024;2023-04-03T13:09:25;3.73;74.74
43772;HTU21D;59066;54.782;32.024;2023-04-03T13:12:08;3.67;75.03
43772;HTU21D;59066;54.782;32.024;2023-04-03T13:14:38;3.78;75.35
43772;HTU21D;59066;54.782;32.024;2023-04-03T13:17:13;3.94;75.15
43772;HTU21D;59066;54.782;32.024;2023-04-03T13:19:44;4.05;74.91
43772;HTU21D;59066;54.782;32.024;2023-04-03T13:24:55;4.12;74.57
43772;HTU21D;59066;54.782;32.024;2023-04-03T13:27:23;4.06;74.67
43772;HTU21D;59066;54.782;32.024;2023-04-03T13:29:53;4.09;74.79
43772;HTU21D;59066;54.782;32.024;2023-04-03T13:32:24;4.12;74.73
43772;HTU21D;59066;54.782;32.024;2023-04-03T13:34:52;4.12;74.80
43772;HTU21D;59066;54.782;32.024;2023-04-03T13:37:32;4.10;74.73
43772;HTU21D;59066;54.782;32.024;2023-04-03T13:40:11;4.05;74.73
43772;HTU21D;59066;54.782;32.024;2023-04-03T13:42:41;3.91;74.82
43772;HTU21D;59066;54.782;32.024;2023-04-03T13:47:41;3.84;74.90
43772;HTU21D;59066;54.782;32.024;2023-04-03T13:52:43;3.72;75.05
43772;HTU21D;59066;54.782;32.024;2023-04-03T13:55:24;3.63;75.10
43772;HTU21D;59066;54.782;32.024;2023-04-03T13:58:19;3.56;75.53
43772;HTU21D;59066;54.782;32.024;2023-04-03T14:00:55;3.58;75.60
43772;HTU21D;59066;54.782;32.024;2023-04-03T14:03:45;3.60;75.29
43772;HTU21D;59066;54.782;32.024;2023-04-03T14:06:16;3.54;75.41
43772;HTU21D;59066;54.782;32.024;2023-04-03T14:08:44;3.59;75.58
43772;HTU21D;59066;54.782;32.024;2023-04-03T14:11:18;3.65;75.46
43772;HTU21D;59066;54.782;32.024;2023-04-03T14:13:48;3.68;75.47
43772;HTU21D;59066;54.782;32.024;2023-04-03T14:16:22;3.69;75.50
43772;HTU21D;59066;54.782;32.024;2023-04-03T14:18:51;3.58;75.50
43772;HTU21D;59066;54.782;32.024;2023-04-03T14:21:20;3.54;75.82
43772;HTU21D;59066;54.782;32.024;2023-04-03T14:23:48;3.54;75.86
43772;HTU21D;59066;54.782;32.024;2023-04-03T14:26:19;3.58;75.80
43772;HTU21D;59066;54.782;32.024;2023-04-03T14:28:50;3.57;76.05
43772;HTU21D;59066;54.782;32.024;2023-04-03T14:31:19;3.63;75.89
43772;HTU21D;59066;54.782;32.024;2023-04-03T14:33:48;3.59;75.91
43772;HTU21D;59066;54.782;32.024;2023-04-03T14:36:27;3.56;75.96
43772;HTU21D;59066;54.782;32.024;2023-04-03T14:38:55;3.56;75.99
43772;HTU21D;59066;54.782;32.024;2023-04-03T14:41:26;3.55;75.91
43772;HTU21D;59066;54.782;32.024;2023-04-03T14:43:53;3.43;76.11
43772;HTU21D;59066;54.782;32.024;2023-04-03T14:46:31;3.40;76.37
43772;HTU21D;59066;54.782;32.024;2023-04-03T14:49:17;3.40;76.34
43772;HTU21D;59066;54.782;32.024;2023-04-03T14:51:46;3.36;76.44
43772;HTU21D;59066;54.782;32.024;2023-04-03T14:54:17;3.38;76.18
43772;HTU21D;59066;54.782;32.024;2023-04-03T14:56:46;3.33;76.44
43772;HTU21D;59066;54.782;32.024;2023-04-03T14:59:14;3.31;76.50
43772;HTU21D;59066;54.782;32.024;2023-04-03T15:01:42;3.26;76.74
43772;HTU21D;59066;54.782;32.024;2023-04-03T15:04:18;3.28;77.00
43772;HTU21D;59066;54.782;32.024;2023-04-03T15:06:47;3.38;76.85
43772;HTU21D;59066;54.782;32.024;2023-04-03T15:09:24;3.40;76.61
43772;HTU21D;59066;54.782;32.024;2023-04-03T15:11:52;3.32;76.63
43772;HTU21D;59066;54.782;32.024;2023-04-03T15:14:20;3.31;76.67
43772;HTU21D;59066;54.782;32.024;2023-04-03T15:16:55;3.30;76.76
43772;HTU21D;59066;54.782;32.024;2023-04-03T15:19:23;3.35;76.97
43772;HTU21D;59066;54.782;32.024;2023-04-03T15:21:50;3.43;76.92
43772;HTU21D;59066;54.782;32.024;2023-04-03T15:24:18;3.47;76.74
43772;HTU21D;59066;54.782;32.024;2023-04-03T15:26:45;3.49;76.76
43772;HTU21D;59066;54.782;32.024;2023-04-03T15:29:13;3.42;77.19
43772;HTU21D;59066;54.782;32.024;2023-04-03T15:31:41;3.46;77.15
43772;HTU21D;59066;54.782;32.024;2023-04-03T15:34:09;3.48;77.22
43772;HTU21D;59066;54.782;32.024;2023-04-03T15:36:36;3.55;77.22
43772;HTU21D;59066;54.782;32.024;2023-04-03T15:39:04;3.56;77.19
43772;HTU21D;59066;54.782;32.024;2023-04-03T15:41:31;3.57;77.34
43772;HTU21D;59066;54.782;32.024;2023-04-03T15:43:59;3.52;77.01
43772;HTU21D;59066;54.782;32.024;2023-04-03T15:46:27;3.49;77.22
43772;HTU21D;59066;54.782;32.024;2023-04-03T15:48:55;3.50;77.27
43772;HTU21D;59066;54.782;32.024;2023-04-03T15:51:22;3.46;77.57
43772;HTU21D;59066;54.782;32.024;2023-04-03T15:54:16;3.55;77.44
43772;HTU21D;59066;54.782;32.024;2023-04-03T15:56:48;3.52;77.27
43772;HTU21D;59066;54.782;32.024;2023-04-03T15:59:17;3.52;77.51
43772;HTU21D;59066;54.782;32.024;2023-04-03T16:01:47;3.50;77.47
43772;HTU21D;59066;54.782;32.024;2023-04-03T16:04:18;3.45;77.64
43772;HTU21D;59066;54.782;32.024;2023-04-03T16:06:48;3.41;77.61
43772;HTU21D;59066;54.782;32.024;2023-04-03T16:09:16;3.47;77.79
43772;HTU21D;59066;54.782;32.024;2023-04-03T16:11:44;3.52;77.61
43772;HTU21D;59066;54.782;32.024;2023-04-03T16:14:12;3.52;77.60
43772;HTU21D;59066;54.782;32.024;2023-04-03T16:16:39;3.48;77.66
43772;HTU21D;59066;54.782;32.024;2023-04-03T16:19:07;3.44;77.56
43772;HTU21D;59066;54.782;32.024;2023-04-03T16:21:36;3.39;77.82
43772;HTU21D;59066;54.782;32.024;2023-04-03T16:24:04;3.42;77.62
43772;HTU21D;59066;54.782;32.024;2023-04-03T16:26:32;3.32;77.89
43772;HTU21D;59066;54.782;32.024;2023-04-03T16:29:00;3.32;77.89
43772;HTU21D;59066;54.782;32.024;2023-04-03T16:31:28;3.34;78.05
43772;HTU21D;59066;54.782;32.024;2023-04-03T16:33:55;3.34;77.69
43772;HTU21D;59066;54.782;32.024;2023-04-03T16:36:24;3.33;78.06
43772;HTU21D;59066;54.782;32.024;2023-04-03T16:38:52;3.39;78.13
43772;HTU21D;59066;54.782;32.024;2023-04-03T16:41:20;3.46;78.10
43772;HTU21D;59066;54.782;32.024;2023-04-03T16:43:48;3.46;77.98
43772;HTU21D;59066;54.782;32.024;2023-04-03T16:46:17;3.48;77.92
43772;HTU21D;59066;54.782;32.024;2023-04-03T16:48:45;3.46;77.89
43772;HTU21D;59066;54.782;32.024;2023-04-03T16:51:13;3.42;78.04
43772;HTU21D;59066;54.782;32.024;2023-04-03T16:53:41;3.42;77.97
43772;HTU21D;59066;54.782;32.024;2023-04-03T16:56:09;3.34;78.14
43772;HTU21D;59066;54.782;32.024;2023-04-03T16:58:37;3.39;78.27
43772;HTU21D;59066;54.782;32.024;2023-04-03T17:01:16;3.35;78.18
43772;HTU21D;59066;54.782;32.024;2023-04-03T17:03:45;3.36;78.42
43772;HTU21D;59066;54.782;32.024;2023-04-03T17:06:17;3.38;78.37
43772;HTU21D;59066;54.782;32.024;2023-04-03T17:08:47;3.39;78.34
43772;HTU21D;59066;54.782;32.024;2023-04-03T17:11:28;3.42;78.40
43772;HTU21D;59066;54.782;32.024;2023-04-03T17:13:56;3.41;78.11
43772;HTU21D;59066;54.782;32.024;2023-04-03T17:16:25;3.38;78.38
43772;HTU21D;59066;54.782;32.024;2023-04-03T17:18:53;3.40;78.41
43772;HTU21D;59066;54.782;32.024;2023-04-03T17:21:21;3.41;78.50
43772;HTU21D;59066;54.782;32.024;2023-04-03T17:23:51;3.46;78.63